createdAt,value
2023-02-27T00:00:20.366Z,75.38
2023-02-27T00:02:52.903Z,75.59
2023-02-27T00:05:22.639Z,75.12
2023-02-27T00:07:54.466Z,75.53
2023-02-27T00:10:23.671Z,74.83
2023-02-27T00:12:52.712Z,73.97
2023-02-27T00:15:23.061Z,74.13
2023-02-27T00:17:54.123Z,74.18
2023-02-27T00:20:23.806Z,74.21
2023-02-27T00:22:54.959Z,74.05
2023-02-27T00:25:24.236Z,74.77
2023-02-27T00:27:53.507Z,74.55
2023-02-27T00:30:22.772Z,74.53
2023-02-27T00:32:52.073Z,74.10
2023-02-27T00:35:22.052Z,74.16
2023-02-27T00:37:52.026Z,74.26
2023-02-27T00:40:25.944Z,74.55
2023-02-27T00:45:31.941Z,74.70
2023-02-27T00:48:09.408Z,74.32
2023-02-27T00:50:38.623Z,74.48
2023-02-27T00:53:07.782Z,74.52
2023-02-27T00:55:39.168Z,74.25
2023-02-27T00:58:08.602Z,74.31
2023-02-27T01:00:37.874Z,73.23
2023-02-27T01:03:12.262Z,72.59
2023-02-27T01:05:41.625Z,72.59
2023-02-27T01:08:10.652Z,71.92
2023-02-27T01:10:44.536Z,71.47
2023-02-27T01:13:13.741Z,71.73
2023-02-27T01:15:42.874Z,72.20
2023-02-27T01:18:18.068Z,71.46
2023-02-27T01:20:47.323Z,70.55
2023-02-27T01:23:16.550Z,70.60
2023-02-27T01:25:48.467Z,70.69
2023-02-27T01:28:17.666Z,71.56
2023-02-27T01:30:46.851Z,71.62
2023-02-27T01:33:17.572Z,71.58
2023-02-27T01:35:47.022Z,71.38
2023-02-27T01:38:16.250Z,71.31
2023-02-27T01:40:47.387Z,71.99
2023-02-27T01:43:22.695Z,71.94
2023-02-27T01:45:55.141Z,71.50
2023-02-27T01:48:28.815Z,71.74
2023-02-27T01:51:03.356Z,71.14
2023-02-27T01:53:36.656Z,71.28
2023-02-27T01:56:19.245Z,71.40
2023-02-27T01:58:51.297Z,71.33
2023-02-27T02:01:21.534Z,71.68
2023-02-27T02:03:56.064Z,71.46
2023-02-27T02:06:27.401Z,71.33
2023-02-27T02:08:58.022Z,71.30
2023-02-27T02:14:10.251Z,72.23
2023-02-27T02:17:03.727Z,72.18
2023-02-27T02:19:56.700Z,72.27
2023-02-27T02:23:04.963Z,71.99
2023-02-27T02:26:10.421Z,72.38
2023-02-27T02:29:16.566Z,72.18
2023-02-27T02:32:23.905Z,72.25
2023-02-27T02:35:15.847Z,72.65
2023-02-27T02:38:30.546Z,72.62
2023-02-27T02:41:12.482Z,72.87
2023-02-27T02:43:51.052Z,73.23
2023-02-27T02:46:34.195Z,73.47
2023-02-27T02:49:11.482Z,73.25
2023-02-27T02:54:40.905Z,73.34
2023-02-27T02:57:24.560Z,73.63
2023-02-27T02:59:59.941Z,74.00
2023-02-27T03:02:40.399Z,73.49
2023-02-27T03:05:14.589Z,73.59
2023-02-27T03:07:48.920Z,73.57
2023-02-27T03:10:23.065Z,74.09
2023-02-27T03:12:59.553Z,74.55
2023-02-27T03:15:40.636Z,74.33
2023-02-27T03:18:25.876Z,74.94
2023-02-27T03:21:05.225Z,74.70
2023-02-27T03:23:39.521Z,74.91
2023-02-27T03:26:12.887Z,74.89
2023-02-27T03:29:00.836Z,74.65
2023-02-27T03:31:35.952Z,75.02
2023-02-27T03:34:20.565Z,74.73
2023-02-27T03:37:04.280Z,74.53
2023-02-27T03:39:41.959Z,74.99
2023-02-27T03:42:21.205Z,75.08
2023-02-27T03:45:18.439Z,75.09
2023-02-27T03:47:48.745Z,74.76
2023-02-27T03:50:23.892Z,74.43
2023-02-27T03:52:53.751Z,74.67
2023-02-27T03:55:35.863Z,74.98
2023-02-27T03:58:07.807Z,75.50
2023-02-27T04:00:37.355Z,75.48
2023-02-27T04:03:08.013Z,75.27
2023-02-27T04:05:38.758Z,75.17
2023-02-27T04:08:31.792Z,75.50
2023-02-27T04:11:26.556Z,75.74
2023-02-27T04:14:13.031Z,75.93
2023-02-27T04:16:56.183Z,75.53
2023-02-27T04:19:46.001Z,75.56
2023-02-27T04:22:30.115Z,75.85
2023-02-27T04:25:12.796Z,75.90
2023-02-27T04:27:59.970Z,75.93
2023-02-27T04:30:38.282Z,75.92
2023-02-27T04:35:54.459Z,76.19
2023-02-27T04:38:31.831Z,76.77
2023-02-27T04:41:08.120Z,76.84
2023-02-27T04:43:39.893Z,76.73
2023-02-27T04:46:15.063Z,76.80
2023-02-27T04:48:52.988Z,76.79
2023-02-27T04:51:29.545Z,76.79
2023-02-27T04:54:04.098Z,76.83
2023-02-27T04:56:37.017Z,77.50
2023-02-27T04:59:10.877Z,77.58
2023-02-27T05:01:45.950Z,78.03
2023-02-27T05:04:19.460Z,77.77
2023-02-27T05:07:03.014Z,77.49
2023-02-27T05:09:37.303Z,77.39
2023-02-27T05:14:53.038Z,77.22
2023-02-27T05:17:33.667Z,77.35
2023-02-27T05:20:04.747Z,76.97
2023-02-27T05:22:47.278Z,77.48
2023-02-27T05:25:22.671Z,77.45
2023-02-27T05:28:04.106Z,77.43
2023-02-27T05:30:38.827Z,77.78
2023-02-27T05:33:22.328Z,77.87
2023-02-27T05:36:00.834Z,77.87
2023-02-27T05:38:35.541Z,78.36
2023-02-27T05:41:12.248Z,78.07
2023-02-27T05:43:48.365Z,78.57
2023-02-27T05:46:22.848Z,78.41
2023-02-27T05:49:03.665Z,78.48
2023-02-27T05:51:37.508Z,78.17
2023-02-27T05:54:12.259Z,78.52
2023-02-27T05:56:44.764Z,77.73
2023-02-27T05:59:25.428Z,78.02
2023-02-27T06:01:55.364Z,78.04
2023-02-27T06:04:30.708Z,78.25
2023-02-27T06:07:01.428Z,78.23
2023-02-27T06:09:37.109Z,78.28
2023-02-27T06:12:06.517Z,78.45
2023-02-27T06:14:35.760Z,78.41
2023-02-27T06:17:05.141Z,78.47
2023-02-27T06:19:36.298Z,78.00
2023-02-27T06:22:10.586Z,78.50
2023-02-27T06:24:40.605Z,78.23
2023-02-27T06:27:09.927Z,78.04
2023-02-27T06:29:44.379Z,77.98
2023-02-27T06:32:14.933Z,77.87
2023-02-27T06:34:46.150Z,77.69
2023-02-27T06:37:15.320Z,77.78
2023-02-27T06:39:44.553Z,77.75
2023-02-27T06:42:13.994Z,77.48
2023-02-27T06:44:43.239Z,77.32
2023-02-27T06:47:12.625Z,77.15
2023-02-27T06:49:42.127Z,76.87
2023-02-27T06:52:13.563Z,76.98
2023-02-27T06:54:42.853Z,77.11
2023-02-27T06:57:11.941Z,76.67
2023-02-27T06:59:41.536Z,75.81
2023-02-27T07:02:12.240Z,76.38
2023-02-27T07:04:41.431Z,76.37
2023-02-27T07:07:32.869Z,76.00
2023-02-27T07:10:03.744Z,75.28
2023-02-27T07:12:38.318Z,75.27
2023-02-27T07:15:08.859Z,75.25
2023-02-27T07:17:43.137Z,75.27
2023-02-27T07:20:14.052Z,74.98
2023-02-27T07:22:55.653Z,74.32
2023-02-27T07:25:24.769Z,74.42
2023-02-27T07:27:53.947Z,73.87
2023-02-27T07:30:23.573Z,74.07
2023-02-27T07:32:53.622Z,73.16
2023-02-27T07:35:27.909Z,73.90
2023-02-27T07:37:59.355Z,73.75
2023-02-27T07:40:28.948Z,73.87
2023-02-27T07:42:59.209Z,73.93
2023-02-27T07:45:29.860Z,73.41
2023-02-27T07:47:58.884Z,73.70
2023-02-27T07:50:28.060Z,74.12
2023-02-27T07:52:59.194Z,74.42
2023-02-27T07:55:28.467Z,74.75
2023-02-27T07:57:57.794Z,74.60
2023-02-27T08:00:29.248Z,74.75
2023-02-27T08:02:58.616Z,74.04
2023-02-27T08:05:27.760Z,73.73
2023-02-27T08:07:59.112Z,73.64
2023-02-27T08:10:28.303Z,73.17
2023-02-27T08:12:57.728Z,73.69
2023-02-27T08:15:26.871Z,74.23
2023-02-27T08:17:55.981Z,73.57
2023-02-27T08:20:25.494Z,73.79
2023-02-27T08:22:54.677Z,73.15
2023-02-27T08:25:26.200Z,73.30
2023-02-27T08:27:55.344Z,73.02
2023-02-27T08:30:24.534Z,73.09
2023-02-27T08:32:55.305Z,73.11
2023-02-27T08:35:29.695Z,72.62
2023-02-27T08:38:03.848Z,71.94
2023-02-27T08:40:35.393Z,71.55
2023-02-27T08:43:04.971Z,71.15
2023-02-27T08:45:34.174Z,71.67
2023-02-27T08:48:03.405Z,70.97
2023-02-27T08:50:34.994Z,70.11
2023-02-27T08:53:04.416Z,70.39
2023-02-27T08:55:35.404Z,70.12
2023-02-27T08:58:04.539Z,70.80
2023-02-27T09:00:34.196Z,70.48
2023-02-27T09:03:03.642Z,69.31
2023-02-27T09:05:35.029Z,69.49
2023-02-27T09:08:04.422Z,69.37
2023-02-27T09:10:35.879Z,68.85
2023-02-27T09:13:05.111Z,68.66
2023-02-27T09:15:37.504Z,69.36
2023-02-27T09:18:07.422Z,69.17
2023-02-27T09:20:39.857Z,69.14
2023-02-27T09:23:09.535Z,69.21
2023-02-27T09:25:41.938Z,69.02
2023-02-27T09:28:11.619Z,69.86
2023-02-27T09:30:40.689Z,69.34
2023-02-27T09:33:20.236Z,68.83
2023-02-27T09:35:49.749Z,69.12
2023-02-27T09:38:19.371Z,68.80
2023-02-27T09:40:53.254Z,69.54
2023-02-27T09:43:26.857Z,69.02
2023-02-27T09:45:57.917Z,69.55
2023-02-27T09:48:33.652Z,69.45
2023-02-27T09:51:04.002Z,69.27
2023-02-27T09:53:39.776Z,69.20
2023-02-27T09:56:18.894Z,69.47
2023-02-27T09:58:53.250Z,69.47
2023-02-27T10:01:25.482Z,68.99
2023-02-27T10:04:17.999Z,69.32
2023-02-27T10:06:51.328Z,69.31
2023-02-27T10:09:37.343Z,69.83
2023-02-27T10:12:35.449Z,69.77
2023-02-27T10:15:11.286Z,69.61
2023-02-27T10:17:48.061Z,69.51
2023-02-27T10:20:24.208Z,68.55
2023-02-27T10:22:55.237Z,67.96
2023-02-27T10:25:31.544Z,67.71
2023-02-27T10:28:13.619Z,67.48
2023-02-27T10:30:45.944Z,67.04
2023-02-27T10:36:12.425Z,67.43
2023-02-27T10:38:53.359Z,67.80
2023-02-27T10:41:24.807Z,68.09
2023-02-27T10:43:59.996Z,68.21
2023-02-27T10:46:31.412Z,68.29
2023-02-27T10:49:05.625Z,69.19
2023-02-27T10:51:38.334Z,68.70
2023-02-27T10:54:27.807Z,69.68
2023-02-27T10:56:59.165Z,69.59
2023-02-27T10:59:33.629Z,67.83
2023-02-27T11:02:05.717Z,67.17
2023-02-27T11:04:38.676Z,67.11
2023-02-27T11:07:11.640Z,65.71
2023-02-27T11:09:46.067Z,66.38
2023-02-27T11:12:24.421Z,66.08
2023-02-27T11:14:56.971Z,66.17
2023-02-27T11:17:31.282Z,65.86
2023-02-27T11:20:05.212Z,66.78
2023-02-27T11:22:34.809Z,66.29
2023-02-27T11:25:20.606Z,67.12
2023-02-27T11:27:51.689Z,67.67
2023-02-27T11:30:31.160Z,67.76
2023-02-27T11:33:12.890Z,67.59
2023-02-27T11:35:42.367Z,67.15
2023-02-27T11:38:23.001Z,68.06
2023-02-27T11:40:56.480Z,69.09
2023-02-27T11:43:28.573Z,70.14
2023-02-27T11:46:10.199Z,70.91
2023-02-27T11:48:54.793Z,71.02
2023-02-27T11:51:38.427Z,71.04
2023-02-27T11:54:17.248Z,71.58
2023-02-27T11:56:49.526Z,72.41
2023-02-27T11:59:29.845Z,73.00
2023-02-27T12:02:12.684Z,73.20
2023-02-27T12:04:54.090Z,73.51
2023-02-27T12:07:27.823Z,73.73
2023-02-27T12:10:06.629Z,74.16
2023-02-27T12:12:49.125Z,75.18
2023-02-27T12:15:29.146Z,75.41
2023-02-27T12:18:07.674Z,75.33
2023-02-27T12:20:40.601Z,75.66
2023-02-27T12:23:20.555Z,76.34
2023-02-27T12:25:54.844Z,76.33
2023-02-27T12:28:33.202Z,76.60
2023-02-27T12:31:16.439Z,76.02
2023-02-27T12:33:55.130Z,75.62
2023-02-27T12:36:24.578Z,75.44
2023-02-27T12:38:58.970Z,74.87
2023-02-27T12:41:48.521Z,74.38
2023-02-27T12:44:44.334Z,73.07
2023-02-27T12:53:29.293Z,67.85
2023-02-27T12:56:05.184Z,68.12
2023-02-27T12:58:45.026Z,67.78
2023-02-27T13:01:26.544Z,67.74
2023-02-27T13:04:01.738Z,67.72
2023-02-27T13:06:37.282Z,66.66
2023-02-27T13:09:25.457Z,67.01
2023-02-27T13:12:04.724Z,67.39
2023-02-27T13:14:44.294Z,66.88
2023-02-27T13:17:22.835Z,67.06
2023-02-27T13:20:00.471Z,67.06
2023-02-27T13:22:39.693Z,67.45
2023-02-27T13:25:16.279Z,67.37
2023-02-27T13:27:49.355Z,67.53
2023-02-27T13:30:25.788Z,67.98
2023-02-27T13:33:02.208Z,68.12
2023-02-27T13:35:40.972Z,68.45
2023-02-27T13:38:35.431Z,67.89
2023-02-27T13:41:41.439Z,67.44
2023-02-27T13:44:43.380Z,67.43
2023-02-27T13:47:43.092Z,68.10
2023-02-27T13:50:47.763Z,68.60
2023-02-27T13:53:24.091Z,68.30
2023-02-27T13:56:01.007Z,69.49
2023-02-27T13:58:37.328Z,69.45
2023-02-27T14:01:07.108Z,70.06
2023-02-27T14:03:36.400Z,70.22
2023-02-27T14:06:07.930Z,69.98
2023-02-27T14:08:50.586Z,70.32
2023-02-27T14:11:24.647Z,70.28
2023-02-27T14:14:29.364Z,70.56
2023-02-27T14:17:03.253Z,70.42
2023-02-27T14:19:56.478Z,70.82
2023-02-27T14:22:41.730Z,70.66
2023-02-27T14:25:21.532Z,70.66
2023-02-27T14:27:56.942Z,70.46
2023-02-27T14:30:34.296Z,70.37
2023-02-27T14:33:14.233Z,70.71
2023-02-27T14:35:48.140Z,70.71
2023-02-27T14:38:21.948Z,70.58
2023-02-27T14:41:06.516Z,70.67
2023-02-27T14:43:40.700Z,69.89
2023-02-27T14:46:18.156Z,70.71
2023-02-27T14:48:54.625Z,71.01
2023-02-27T14:51:25.308Z,70.58
2023-02-27T14:54:06.612Z,70.84
2023-02-27T14:56:36.516Z,70.24
2023-02-27T14:59:23.007Z,69.82
2023-02-27T15:01:52.874Z,70.28
2023-02-27T15:04:27.798Z,70.29
2023-02-27T15:06:59.402Z,70.25
2023-02-27T15:09:42.830Z,70.27
2023-02-27T15:12:17.916Z,70.36
2023-02-27T15:14:51.474Z,70.58
2023-02-27T15:17:22.350Z,70.82
2023-02-27T15:19:55.896Z,70.91
2023-02-27T15:22:38.544Z,71.08
2023-02-27T15:25:29.447Z,71.20
2023-02-27T15:28:02.691Z,71.34
2023-02-27T15:30:36.971Z,70.63
2023-02-27T15:33:06.701Z,70.85
2023-02-27T15:35:46.105Z,71.29
2023-02-27T15:38:28.632Z,71.69
2023-02-27T15:40:59.161Z,71.40
2023-02-27T15:43:29.961Z,71.86
2023-02-27T15:45:59.948Z,71.73
2023-02-27T15:48:29.637Z,72.08
2023-02-27T15:51:04.044Z,72.42
2023-02-27T15:53:34.289Z,72.27
2023-02-27T15:56:07.217Z,72.44
2023-02-27T15:58:39.462Z,72.51
2023-02-27T16:01:11.255Z,71.85
2023-02-27T16:03:42.208Z,71.87
2023-02-27T16:06:28.291Z,72.20
2023-02-27T16:09:00.182Z,72.65
2023-02-27T16:11:37.092Z,72.84
2023-02-27T16:14:08.121Z,72.99
2023-02-27T16:16:38.836Z,73.23
2023-02-27T16:19:24.280Z,73.09
2023-02-27T16:22:08.383Z,73.13
2023-02-27T16:24:37.589Z,73.47
2023-02-27T16:27:07.387Z,73.70
2023-02-27T16:29:43.095Z,73.59
2023-02-27T16:32:23.975Z,73.97
2023-02-27T16:35:01.266Z,73.59
2023-02-27T16:37:39.077Z,73.21
2023-02-27T16:40:16.515Z,73.27
2023-02-27T16:42:51.634Z,73.11
2023-02-27T16:45:27.886Z,73.59
2023-02-27T16:47:59.573Z,73.44
2023-02-27T16:50:32.287Z,73.54
2023-02-27T16:53:03.703Z,73.71
2023-02-27T16:55:43.095Z,73.71
2023-02-27T16:58:15.698Z,73.83
2023-02-27T17:00:45.285Z,74.19
2023-02-27T17:03:14.435Z,73.70
2023-02-27T17:05:44.791Z,73.69
2023-02-27T17:08:16.323Z,73.63
2023-02-27T17:10:45.558Z,74.11
2023-02-27T17:13:14.955Z,73.82
2023-02-27T17:15:44.666Z,73.76
2023-02-27T17:18:14.452Z,74.08
2023-02-27T17:20:50.947Z,73.49
2023-02-27T17:23:22.582Z,74.02
2023-02-27T17:25:53.688Z,73.87
2023-02-27T17:28:23.687Z,73.55
2023-02-27T17:30:54.478Z,73.27
2023-02-27T17:33:28.916Z,73.50
2023-02-27T17:36:03.956Z,73.55
2023-02-27T17:38:35.297Z,73.30
2023-02-27T17:41:13.992Z,73.46
2023-02-27T17:43:43.658Z,73.21
2023-02-27T17:46:14.281Z,73.07
2023-02-27T17:48:45.060Z,73.12
2023-02-27T17:51:16.326Z,72.66
2023-02-27T17:53:47.632Z,72.92
2023-02-27T17:56:17.017Z,72.25
2023-02-27T17:58:46.508Z,72.77
2023-02-27T18:01:21.019Z,72.58
2023-02-27T18:03:50.808Z,72.48
2023-02-27T18:06:20.745Z,72.56
2023-02-27T18:08:52.103Z,72.61
2023-02-27T18:11:23.458Z,73.11
2023-02-27T18:13:52.833Z,72.61
2023-02-27T18:16:23.704Z,72.42
2023-02-27T18:18:52.882Z,72.31
2023-02-27T18:24:01.053Z,72.60
2023-02-27T18:26:32.189Z,72.58
2023-02-27T18:29:02.855Z,72.50
2023-02-27T18:31:34.215Z,72.53
2023-02-27T18:34:03.958Z,72.38
2023-02-27T18:36:33.700Z,72.59
2023-02-27T18:39:10.344Z,73.24
2023-02-27T18:41:39.960Z,73.84
2023-02-27T18:44:10.161Z,73.65
2023-02-27T18:46:40.380Z,73.66
2023-02-27T18:49:10.868Z,73.25
2023-02-27T18:51:46.105Z,72.83
2023-02-27T18:54:17.354Z,72.35
2023-02-27T18:56:48.120Z,72.49
2023-02-27T18:59:17.313Z,71.83
2023-02-27T19:01:46.424Z,71.92
2023-02-27T19:04:20.651Z,72.09
2023-02-27T19:06:49.832Z,72.38
2023-02-27T19:09:26.795Z,72.71
2023-02-27T19:11:56.681Z,73.00
2023-02-27T19:14:26.699Z,72.77
2023-02-27T19:16:56.440Z,73.55
2023-02-27T19:19:27.835Z,73.67
2023-02-27T19:22:02.086Z,74.11
2023-02-27T19:24:33.258Z,73.93
2023-02-27T19:27:02.456Z,74.18
2023-02-27T19:29:32.024Z,74.71
2023-02-27T19:32:01.628Z,75.51
2023-02-27T19:34:35.936Z,75.98
2023-02-27T19:37:05.175Z,75.99
2023-02-27T19:39:36.209Z,76.37
2023-02-27T19:42:05.570Z,77.02
2023-02-27T19:44:34.636Z,76.82
2023-02-27T19:47:08.902Z,77.10
2023-02-27T19:49:38.831Z,77.78
2023-02-27T19:52:10.176Z,78.49
2023-02-27T19:54:41.837Z,77.95
2023-02-27T19:57:11.560Z,78.41
2023-02-27T19:59:40.608Z,78.97
2023-02-27T20:02:10.194Z,79.32
2023-02-27T20:04:39.490Z,79.33
2023-02-27T20:07:13.781Z,79.88
2023-02-27T20:09:45.029Z,80.32
2023-02-27T20:12:14.429Z,80.79
2023-02-27T20:14:44.210Z,80.78
2023-02-27T20:17:13.540Z,81.05
2023-02-27T20:19:42.697Z,81.51
2023-02-27T20:22:13.057Z,81.89
2023-02-27T20:24:44.324Z,82.07
2023-02-27T20:27:15.536Z,83.18
2023-02-27T20:29:44.936Z,82.77
2023-02-27T20:32:14.696Z,82.59
2023-02-27T20:34:44.784Z,82.63
2023-02-27T20:37:14.094Z,82.84
2023-02-27T20:39:48.355Z,83.01
2023-02-27T20:42:19.811Z,83.19
2023-02-27T20:44:51.188Z,83.54
2023-02-27T20:47:20.438Z,83.28
2023-02-27T20:49:49.906Z,83.82
2023-02-27T20:52:19.214Z,83.44
2023-02-27T20:54:53.289Z,84.78
2023-02-27T20:57:24.535Z,84.27
2023-02-27T20:59:54.107Z,84.39
2023-02-27T21:02:28.440Z,84.61
2023-02-27T21:07:42.904Z,85.17
2023-02-27T21:10:18.942Z,86.05
2023-02-27T21:12:50.168Z,85.30
2023-02-27T21:15:19.631Z,85.35
2023-02-27T21:20:24.831Z,85.92
2023-02-27T21:22:55.295Z,85.88
2023-02-27T21:25:25.256Z,85.88
2023-02-27T21:28:01.739Z,86.19
2023-02-27T21:30:31.274Z,86.85
2023-02-27T21:33:03.331Z,87.13
2023-02-27T21:35:33.701Z,88.02
2023-02-27T21:38:03.382Z,87.83
2023-02-27T21:40:32.588Z,88.04
2023-02-27T21:43:08.633Z,87.90
2023-02-27T21:45:41.515Z,88.49
2023-02-27T21:48:11.482Z,88.73
2023-02-27T21:50:40.681Z,88.83
2023-02-27T21:53:09.973Z,89.20
2023-02-27T21:55:39.142Z,90.33
2023-02-27T21:58:11.208Z,89.99
2023-02-27T22:00:42.811Z,90.89
2023-02-27T22:03:11.902Z,90.57
2023-02-27T22:05:42.517Z,90.27
2023-02-27T22:08:12.203Z,90.59
2023-02-27T22:10:45.322Z,90.95
2023-02-27T22:13:17.806Z,90.96
2023-02-27T22:15:46.848Z,90.58
2023-02-27T22:18:15.956Z,92.13
2023-02-27T22:20:50.228Z,91.04
2023-02-27T22:23:19.533Z,92.66
2023-02-27T22:25:48.669Z,91.73
2023-02-27T22:31:09.621Z,91.59
2023-02-27T22:33:45.890Z,92.01
2023-02-27T22:36:16.797Z,90.94
2023-02-27T22:38:53.898Z,90.64
2023-02-27T22:41:31.093Z,91.02
2023-02-27T22:44:03.446Z,91.12
2023-02-27T22:46:34.638Z,91.48
2023-02-27T22:49:13.913Z,90.94
2023-02-27T22:51:43.658Z,91.53
2023-02-27T22:54:14.391Z,91.25
2023-02-27T22:56:44.272Z,91.14
2023-02-27T23:01:51.201Z,90.38
2023-02-27T23:04:21.717Z,90.70
2023-02-27T23:06:52.782Z,90.38
2023-02-27T23:09:24.964Z,90.28
2023-02-27T23:11:57.495Z,90.45
2023-02-27T23:14:28.622Z,90.34
2023-02-27T23:17:02.883Z,90.36
2023-02-27T23:19:32.705Z,90.71
2023-02-27T23:22:01.796Z,91.18
2023-02-27T23:24:31.195Z,91.10
2023-02-27T23:27:02.416Z,90.83
2023-02-27T23:29:39.319Z,91.01
2023-02-27T23:32:08.576Z,91.01
2023-02-27T23:34:49.083Z,91.11
2023-02-27T23:39:58.861Z,91.17
2023-02-27T23:42:27.991Z,91.56
2023-02-27T23:45:12.241Z,91.72
2023-02-27T23:47:45.025Z,92.14
2023-02-27T23:50:14.419Z,92.21
2023-02-27T23:52:43.516Z,92.99
2023-02-27T23:55:12.957Z,92.83
2023-02-27T23:57:42.222Z,92.79
